East Franklin, Vermont
Current Conditions -  °F | °C
As of 6:15 AM on Tuesday 21 Oct 2014 (Local Time) from KFSO Reporting Station
Drizzle Drizzle  
Wind Chill: 41°   Ceiling: 6500
Heat Index: 43°   Visibility: 10mi
Dew Point: 40°   Wind: 5mph
Humidity: 88%   Direction: 110°ESE
Pressure: 29.94"   Gusts: NA
Location:  44.9656°N, 72.8975°W
Report Text: KFSO 211015Z AUTO 11004KT 10SM -DZ SCT050 OVC065 06/05 A2994 RMK AO2 T00630045
Loading
Personal Weather Stations






























Interactive Weather Map New forecast layout! Learn more

10-Day Weather Forecast

Advertisements
Track Severe Weather on mobile